Time;durP1;ratioP1;P1;durP2;ratioP2;P2;SDS_P1;SDS_P2;PMS_P1;PMS_P2;Temp;Humidity;BMP_temperature;BMP_pressure;BME280_temperature;BME280_humidity;BME280_pressure;Samples;Min_cycle;Max_cycle;Signal;HPM_P1;HPM_P2
2022/11/05 00:09:42;;;;;;;;;;;;;;;20.95;50.18;101060.81;5131933;27;19931;-36
2022/11/05 00:17:40;;;;;;;;;;;;;;;20.96;50.08;101081.00;5113321;27;19970;-37
2022/11/05 00:20:06;;;;;;;;;;;;;;;20.94;50.15;101077.69;5129565;27;19969;-37
2022/11/05 00:25:18;;;;;;;;;;;;;;;20.96;50.07;101084.59;5133757;27;20013;-37
2022/11/05 00:27:45;;;;;;;;;;;;;;;20.97;50.13;101088.19;5130207;27;20183;-37
2022/11/05 00:30:12;;;;;;;;;;;;;;;20.95;50.11;101090.44;5148257;27;19984;-37
2022/11/05 00:32:37;;;;;;;;;;;;;;;20.95;50.13;101096.78;5148099;27;19974;-37
2022/11/05 00:35:04;;;;;;;;;;;;;;;20.95;50.01;101104.28;5149659;27;19927;-37
2022/11/05 00:37:29;;;;;;;;;;;;;;;20.94;49.91;101100.69;5130439;27;20022;-37
2022/11/05 00:39:55;;;;;;;;;;;;;;;20.95;50.00;101107.88;5147680;27;19930;-37
2022/11/05 00:45:06;;;;;;;;;;;;;;;20.93;50.09;101115.63;5131385;27;19962;-37
2022/11/05 00:50:18;;;;;;;;;;;;;;;20.95;50.03;101120.88;5133403;27;20026;-37
2022/11/05 00:52:59;;;;;;;;;;;;;;;20.95;50.05;101113.41;5149130;27;19970;-37
2022/11/05 00:55:27;;;;;;;;;;;;;;;20.97;50.08;101111.16;5147495;27;19923;-37
2022/11/05 00:57:53;;;;;;;;;;;;;;;20.97;50.13;101113.94;5130767;27;19966;-37
2022/11/05 01:00:19;;;;;;;;;;;;;;;20.98;49.94;101115.59;5129516;27;20310;-37
2022/11/05 01:02:44;;;;;;;;;;;;;;;20.98;50.00;101115.59;5129425;27;20401;-37
2022/11/05 01:05:10;;;;;;;;;;;;;;;20.99;49.94;101113.66;5148160;27;19927;-36
2022/11/05 01:07:36;;;;;;;;;;;;;;;20.98;49.94;101118.38;5148980;27;19923;-37
2022/11/05 01:10:01;;;;;;;;;;;;;;;20.98;49.92;101118.38;5146873;27;20283;-37
2022/11/05 01:12:27;;;;;;;;;;;;;;;20.99;49.80;101124.72;5129274;27;19927;-37
2022/11/05 01:14:53;;;;;;;;;;;;;;;20.98;49.96;101125.81;5127990;27;20417;-37
2022/11/05 01:17:18;;;;;;;;;;;;;;;20.97;49.89;101130.53;5148723;27;19934;-37
2022/11/05 01:19:44;;;;;;;;;;;;;;;20.98;49.93;101137.75;5148893;27;19927;-37
2022/11/05 01:22:09;;;;;;;;;;;;;;;20.98;49.76;101136.91;5147756;27;19930;-37
2022/11/05 01:24:35;;;;;;;;;;;;;;;20.98;49.93;101148.81;5148615;27;19975;-37
2022/11/05 01:27:00;;;;;;;;;;;;;;;20.98;49.85;101145.22;5149445;27;20259;-37
2022/11/05 01:29:26;;;;;;;;;;;;;;;20.97;49.91;101144.38;5148272;27;19931;-36
2022/11/05 01:31:52;;;;;;;;;;;;;;;20.97;49.91;101147.16;5129977;27;20388;-37
2022/11/05 01:34:17;;;;;;;;;;;;;;;20.98;50.00;101164.59;5146890;27;19927;-37
2022/11/05 01:36:43;;;;;;;;;;;;;;;20.97;49.71;101158.22;5146979;27;19935;-37
2022/11/05 01:39:08;;;;;;;;;;;;;;;20.98;49.96;101156.28;5148431;27;20376;-37
2022/11/05 01:41:34;;;;;;;;;;;;;;;20.97;49.98;101154.63;5148463;27;20290;-37
2022/11/05 01:43:59;;;;;;;;;;;;;;;20.97;50.00;101165.72;5147969;27;19931;-37
2022/11/05 01:46:26;;;;;;;;;;;;;;;20.97;49.91;101169.31;5147264;27;19923;-37
2022/11/05 01:48:52;;;;;;;;;;;;;;;20.97;49.96;101174.00;5147844;27;20015;-37
2022/11/05 01:51:18;;;;;;;;;;;;;;;20.96;49.76;101167.66;5148357;27;19927;-37
2022/11/05 01:53:45;;;;;;;;;;;;;;;20.96;49.82;101170.41;5148863;27;19969;-37
2022/11/05 01:56:13;;;;;;;;;;;;;;;20.96;49.89;101173.19;5147689;27;20011;-37
2022/11/05 01:58:55;;;;;;;;;;;;;;;20.95;49.87;101171.53;5128423;27;20006;-37
2022/11/05 02:01:21;;;;;;;;;;;;;;;20.95;49.83;101174.31;5147310;27;19963;-37
2022/11/05 02:03:47;;;;;;;;;;;;;;;20.96;49.86;101169.59;5146937;27;19927;-37
2022/11/05 02:06:13;;;;;;;;;;;;;;;20.94;49.81;101175.44;5147032;27;20467;-37
2022/11/05 02:08:45;;;;;;;;;;;;;;;20.96;49.81;101175.13;5127936;27;19978;-37
2022/11/05 02:11:12;;;;;;;;;;;;;;;20.95;49.78;101182.63;5148463;27;20046;-37
2022/11/05 02:13:37;;;;;;;;;;;;;;;20.96;49.92;101172.38;5147084;27;20018;-37
2022/11/05 02:16:07;;;;;;;;;;;;;;;20.95;49.89;101181.78;5146603;27;19927;-37
2022/11/05 02:18:43;;;;;;;;;;;;;;;20.96;49.74;101183.44;5146363;27;20026;-37
2022/11/05 02:21:18;;;;;;;;;;;;;;;20.95;49.69;101182.63;5147492;27;20400;-37
2022/11/05 02:24:03;;;;;;;;;;;;;;;20.95;49.81;101181.78;5147926;27;19958;-37
2022/11/05 02:26:49;;;;;;;;;;;;;;;20.95;49.80;101190.09;5132449;27;20437;-37
2022/11/05 02:29:34;;;;;;;;;;;;;;;20.96;49.80;101191.75;5130471;27;20034;-38
2022/11/05 02:32:04;;;;;;;;;;;;;;;20.95;49.82;101192.88;5130061;27;19977;-37
2022/11/05 02:34:49;;;;;;;;;;;;;;;20.95;49.71;101195.63;5146691;27;20010;-37
2022/11/05 02:37:35;;;;;;;;;;;;;;;20.94;49.73;101203.13;5131761;27;19923;-37
2022/11/05 02:40:05;;;;;;;;;;;;;;;20.94;49.82;101202.25;5130496;27;19959;-36
2022/11/05 02:42:34;;;;;;;;;;;;;;;20.95;49.78;101203.94;5146332;27;19970;-37
2022/11/05 02:47:50;;;;;;;;;;;;;;;20.94;49.76;101199.50;5158963;27;19926;-34
2022/11/05 02:50:36;;;;;;;;;;;;;;;20.95;49.76;101195.63;5138725;27;20042;-35
2022/11/05 02:53:09;;;;;;;;;;;;;;;20.95;49.75;101192.88;5139267;27;19974;-34
2022/11/05 02:55:36;;;;;;;;;;;;;;;20.95;49.66;101195.63;5139812;27;19938;-34
2022/11/05 02:58:03;;;;;;;;;;;;;;;20.94;49.80;101183.75;5137729;27;19971;-34
2022/11/05 03:03:16;;;;;;;;;;;;;;;20.94;49.75;101193.97;5166957;27;19925;-34
2022/11/05 03:05:51;;;;;;;;;;;;;;;20.94;49.80;101194.81;5153882;27;19966;-34
2022/11/05 03:08:21;;;;;;;;;;;;;;;20.94;49.72;101188.41;5165300;27;20332;-34
2022/11/05 03:10:50;;;;;;;;;;;;;;;20.94;49.63;101185.66;5167034;27;20019;-34
2022/11/05 03:13:16;;;;;;;;;;;;;;;20.93;49.66;101190.38;5161899;27;20014;-34
2022/11/05 03:16:01;;;;;;;;;;;;;;;20.94;49.62;101188.41;5158118;27;19966;-34
2022/11/05 03:18:48;;;;;;;;;;;;;;;20.94;49.54;101182.88;5152124;27;19934;-34
2022/11/05 03:21:16;;;;;;;;;;;;;;;20.94;49.68;101186.50;5151164;27;20013;-34
2022/11/05 03:23:45;;;;;;;;;;;;;;;20.94;49.55;101180.13;5164857;27;20445;-34
2022/11/05 03:26:19;;;;;;;;;;;;;;;20.94;49.68;101191.19;5144734;27;20015;-35
2022/11/05 03:28:46;;;;;;;;;;;;;;;20.93;49.64;101187.59;5161544;27;20409;-34
2022/11/05 03:31:12;;;;;;;;;;;;;;;20.93;49.65;101187.59;5163716;27;20375;-35
2022/11/05 03:33:37;;;;;;;;;;;;;;;20.93;49.51;101195.06;5164664;27;19927;-34
2022/11/05 03:36:04;;;;;;;;;;;;;;;20.93;49.60;101193.13;5165391;27;19930;-35
2022/11/05 03:38:32;;;;;;;;;;;;;;;20.93;49.63;101197.84;5163208;27;20294;-34
2022/11/05 03:40:57;;;;;;;;;;;;;;;20.93;49.64;101201.44;5164679;27;19930;-35
2022/11/05 03:43:23;;;;;;;;;;;;;;;20.93;49.64;101204.22;5163074;27;20010;-35
2022/11/05 03:45:51;;;;;;;;;;;;;;;20.93;49.63;101204.22;5159810;27;19923;-34
2022/11/05 03:48:16;;;;;;;;;;;;;;;20.93;49.57;101209.75;5163741;27;19971;-34
2022/11/05 03:50:44;;;;;;;;;;;;;;;20.93;49.60;101200.63;5163635;27;19976;-35
2022/11/05 03:53:13;;;;;;;;;;;;;;;20.91;49.60;101200.91;5164249;27;19962;-34
2022/11/05 03:55:41;;;;;;;;;;;;;;;20.93;49.63;101208.91;5139824;27;19930;-34
2022/11/05 03:58:06;;;;;;;;;;;;;;;20.92;49.60;101205.31;5133723;27;20409;-34
2022/11/05 04:00:32;;;;;;;;;;;;;;;20.92;49.63;101210.88;5148734;27;20231;-34
2022/11/05 04:02:58;;;;;;;;;;;;;;;20.92;49.45;101212.81;5152666;27;19931;-34
2022/11/05 04:05:23;;;;;;;;;;;;;;;20.92;49.65;101215.56;5150293;27;19924;-35
2022/11/05 04:13:25;;;;;;;;;;;;;;;20.92;49.67;101229.41;5130749;27;19927;-34
2022/11/05 04:18:37;;;;;;;;;;;;;;;20.92;49.61;101244.09;5123155;27;20362;-34
2022/11/05 04:24:20;;;;;;;;;;;;;;;20.91;49.50;101236.06;5113857;27;20014;-35
2022/11/05 04:26:35;;;;;;;;;;;;;;;20.91;49.51;101241.63;5113555;27;19927;-34
2022/11/05 04:31:46;;;;;;;;;;;;;;;20.91;49.41;101236.06;5125861;27;19965;-35
2022/11/05 04:34:12;;;;;;;;;;;;;;;20.91;49.65;101249.91;5135688;27;19923;-34
2022/11/05 04:36:37;;;;;;;;;;;;;;;20.91;49.69;101242.44;5137680;27;20415;-34
2022/11/05 04:39:03;;;;;;;;;;;;;;;20.91;49.53;101245.22;5122547;27;19923;-35
2022/11/05 04:41:28;;;;;;;;;;;;;;;20.90;49.48;101243.56;5141893;27;19933;-34
2022/11/05 04:43:54;;;;;;;;;;;;;;;20.91;49.51;101238.84;5132981;27;20367;-34
2022/11/05 04:46:19;;;;;;;;;;;;;;;20.91;49.48;101244.38;5131873;27;19931;-34
2022/11/05 04:48:45;;;;;;;;;;;;;;;20.91;49.53;101245.22;5146245;27;19934;-34
2022/11/05 04:51:10;;;;;;;;;;;;;;;20.90;49.65;101243.56;5138429;27;19931;-35
2022/11/05 04:53:36;;;;;;;;;;;;;;;20.91;49.43;101244.38;5143503;27;19924;-34
2022/11/05 04:56:09;;;;;;;;;;;;;;;20.91;49.36;101241.63;5145347;27;19923;-34
2022/11/05 04:58:42;;;;;;;;;;;;;;;20.90;49.57;101242.72;5119238;27;20482;-35
2022/11/05 05:01:10;;;;;;;;;;;;;;;20.90;49.36;101248.28;5132032;27;20286;-35
2022/11/05 05:03:36;;;;;;;;;;;;;;;20.89;49.54;101244.66;5137858;27;19962;-34
2022/11/05 05:06:01;;;;;;;;;;;;;;;20.90;49.51;101245.50;5134782;27;19946;-34
2022/11/05 05:08:29;;;;;;;;;;;;;;;20.90;49.40;101253.81;5136972;27;19923;-34
2022/11/05 05:10:54;;;;;;;;;;;;;;;20.90;49.48;101254.63;5119382;27;19934;-34
2022/11/05 05:13:20;;;;;;;;;;;;;;;20.90;49.42;101259.34;5140919;27;19931;-34
2022/11/05 05:15:46;;;;;;;;;;;;;;;20.90;49.61;101267.66;5133842;27;20310;-34
2022/11/05 05:18:11;;;;;;;;;;;;;;;20.90;49.48;101264.88;5143275;27;19923;-34
2022/11/05 05:23:22;;;;;;;;;;;;;;;20.88;49.44;101261.56;5123541;27;19956;-34
2022/11/05 05:25:48;;;;;;;;;;;;;;;20.89;49.46;101260.44;5143424;27;20293;-34
2022/11/05 05:28:13;;;;;;;;;;;;;;;20.89;49.51;101263.19;5137614;27;19924;-34
2022/11/05 05:30:39;;;;;;;;;;;;;;;20.89;49.41;101257.66;5142973;27;19923;-34
2022/11/05 05:33:04;;;;;;;;;;;;;;;20.89;49.36;101252.13;5136023;27;19928;-35
2022/11/05 05:35:30;;;;;;;;;;;;;;;20.89;49.64;101260.44;5142736;27;19935;-35
2022/11/05 05:37:55;;;;;;;;;;;;;;;20.89;49.46;101263.19;5137268;27;19931;-34
2022/11/05 05:40:21;;;;;;;;;;;;;;;20.89;49.48;101264.03;5141630;27;20397;-34
2022/11/05 05:42:51;;;;;;;;;;;;;;;20.89;49.35;101265.97;5141319;27;19924;-35
2022/11/05 05:45:17;;;;;;;;;;;;;;;20.88;49.52;101270.69;5138320;27;20014;-35
2022/11/05 05:47:42;;;;;;;;;;;;;;;20.87;49.55;101269.03;5138191;27;19976;-35
2022/11/05 05:50:08;;;;;;;;;;;;;;;20.87;49.43;101269.03;5138879;27;19938;-34
2022/11/05 05:52:33;;;;;;;;;;;;;;;20.88;49.44;101276.22;5136482;27;20324;-34
2022/11/05 05:54:59;;;;;;;;;;;;;;;20.88;49.60;101276.22;5133491;27;19927;-34
2022/11/05 05:57:25;;;;;;;;;;;;;;;20.87;49.34;101282.88;5139996;27;19923;-34
2022/11/05 05:59:50;;;;;;;;;;;;;;;20.87;49.46;101280.09;5139709;27;19934;-35
2022/11/05 06:02:16;;;;;;;;;;;;;;;20.88;49.39;101276.22;5132815;27;19930;-34
2022/11/05 06:04:41;;;;;;;;;;;;;;;20.87;49.42;101288.41;5136216;27;20306;-34
2022/11/05 06:07:07;;;;;;;;;;;;;;;20.87;49.48;101288.41;5134017;27;19923;-34
2022/11/05 06:09:32;;;;;;;;;;;;;;;20.88;49.42;101287.28;5139644;27;19931;-35
2022/11/05 06:11:58;;;;;;;;;;;;;;;20.87;49.34;101288.41;5140589;27;19927;-34
2022/11/05 06:14:24;;;;;;;;;;;;;;;20.87;49.40;101285.66;5138651;27;19946;-35
2022/11/05 06:16:49;;;;;;;;;;;;;;;20.87;49.23;101293.94;5132546;27;19939;-34
2022/11/05 06:19:15;;;;;;;;;;;;;;;20.87;49.38;101295.91;5137339;27;19927;-34
2022/11/05 06:21:40;;;;;;;;;;;;;;;20.87;49.35;101295.91;5138758;27;19938;-34
2022/11/05 06:24:06;;;;;;;;;;;;;;;20.86;49.35;101289.53;5139619;27;20013;-34
2022/11/05 06:26:32;;;;;;;;;;;;;;;20.87;49.30;101295.91;5140540;27;19927;-34
2022/11/05 06:28:57;;;;;;;;;;;;;;;20.86;49.35;101308.09;5142104;27;20365;-35
2022/11/05 06:31:23;;;;;;;;;;;;;;;20.87;49.22;101318.88;5138907;27;19943;-34
2022/11/05 06:33:48;;;;;;;;;;;;;;;20.86;49.25;101322.75;5119593;27;19950;-34
2022/11/05 06:36:15;;;;;;;;;;;;;;;20.86;49.27;101322.75;5136779;27;20373;-34
2022/11/05 06:38:40;;;;;;;;;;;;;;;20.86;49.37;101331.06;5119027;27;19923;-35
2022/11/05 06:41:06;;;;;;;;;;;;;;;20.86;49.42;101333.81;5117961;27;20328;-35
2022/11/05 06:43:36;;;;;;;;;;;;;;;20.85;49.40;101332.16;5138280;27;19928;-34
2022/11/05 06:46:01;;;;;;;;;;;;;;;20.85;49.32;101337.69;5123625;27;19927;-35
2022/11/05 06:48:27;;;;;;;;;;;;;;;20.85;49.25;101334.91;5141676;27;20452;-34
2022/11/05 06:50:53;;;;;;;;;;;;;;;20.85;49.39;101343.22;5121929;27;20395;-34
2022/11/05 06:53:19;;;;;;;;;;;;;;;20.85;49.30;101340.44;5117491;27;19977;-34
2022/11/05 06:55:46;;;;;;;;;;;;;;;20.86;49.28;101355.97;5132939;27;19964;-34
2022/11/05 06:58:12;;;;;;;;;;;;;;;20.86;49.28;101355.16;5135908;27;19975;-35
2022/11/05 07:00:38;;;;;;;;;;;;;;;20.85;49.23;101357.06;5119816;27;20444;-35
2022/11/05 07:03:05;;;;;;;;;;;;;;;20.85;49.31;101357.06;5134226;27;19923;-35
2022/11/05 07:05:31;;;;;;;;;;;;;;;20.85;49.39;101362.59;5122671;27;20237;-34
2022/11/05 07:07:57;;;;;;;;;;;;;;;20.85;49.16;101359.00;5132629;27;19931;-34
2022/11/05 07:10:22;;;;;;;;;;;;;;;20.85;49.23;101359.00;5133576;27;20078;-34
2022/11/05 07:12:48;;;;;;;;;;;;;;;20.83;49.32;101353.75;5139780;27;19942;-34
2022/11/05 07:15:13;;;;;;;;;;;;;;;20.80;47.82;101352.38;5136977;27;20045;-34
2022/11/05 07:17:39;;;;;;;;;;;;;;;20.77;46.18;101364.03;5133675;27;19931;-34
2022/11/05 07:20:05;;;;;;;;;;;;;;;20.77;46.48;101361.25;5116486;28;19974;-34
2022/11/05 07:22:31;;;;;;;;;;;;;;;20.80;47.14;101362.63;5135477;27;20041;-35
2022/11/05 07:24:57;;;;;;;;;;;;;;;20.82;49.44;101367.91;5121051;27;19927;-34
2022/11/05 07:27:22;;;;;;;;;;;;;;;20.82;49.42;101373.44;5128525;27;19931;-34
2022/11/05 07:29:48;;;;;;;;;;;;;;;20.82;49.54;101373.44;5136611;27;19938;-34
2022/11/05 07:32:13;;;;;;;;;;;;;;;20.82;49.44;101373.44;5133630;27;19955;-35
2022/11/05 07:34:39;;;;;;;;;;;;;;;20.82;49.50;101381.72;5137142;27;19923;-34
2022/11/05 07:37:05;;;;;;;;;;;;;;;20.82;49.51;101387.28;5132038;27;20426;-35
2022/11/05 07:39:30;;;;;;;;;;;;;;;20.82;49.51;101393.63;5139360;27;19927;-34
2022/11/05 07:41:57;;;;;;;;;;;;;;;20.82;49.64;101390.03;5138788;27;19923;-35
2022/11/05 07:44:22;;;;;;;;;;;;;;;20.82;49.47;101399.16;5134338;27;20627;-34
2022/11/05 07:46:49;;;;;;;;;;;;;;;20.82;48.58;101401.94;5133604;27;19928;-35
2022/11/05 07:49:15;;;;;;;;;;;;;;;20.82;49.42;101398.34;5122132;27;19923;-34
2022/11/05 07:51:40;;;;;;;;;;;;;;;20.80;48.08;101399.44;5133569;27;20381;-34
2022/11/05 07:57:28;;;;;;;;;;;;;;;20.74;46.14;101397.78;5135461;27;19981;-34
2022/11/05 07:59:53;;;;;;;;;;;;;;;20.76;46.57;101392.78;5137250;27;20342;-34
2022/11/05 08:02:19;;;;;;;;;;;;;;;20.77;45.82;101390.88;5136338;27;19932;-34
2022/11/05 08:04:45;;;;;;;;;;;;;;;20.73;44.93;101387.84;5135130;27;19938;-34
2022/11/05 08:07:10;;;;;;;;;;;;;;;20.73;45.04;101396.16;5132911;27;19934;-34
2022/11/05 08:09:36;;;;;;;;;;;;;;;20.73;45.73;101393.38;5137365;27;20117;-35
2022/11/05 08:12:01;;;;;;;;;;;;;;;20.74;46.02;101394.19;5136516;27;20577;-34
2022/11/05 08:14:28;;;;;;;;;;;;;;;20.75;45.28;101395.84;5133879;27;20294;-34
2022/11/05 08:16:55;;;;;;;;;;;;;;;20.75;44.80;101404.16;5131833;27;20389;-34
2022/11/05 08:19:21;;;;;;;;;;;;;;;20.74;45.79;101399.72;5133825;27;20250;-35
2022/11/05 08:21:46;;;;;;;;;;;;;;;20.72;45.13;101400.00;5135459;27;19931;-36
2022/11/05 08:24:12;;;;;;;;;;;;;;;20.72;45.19;101400.00;5130517;27;19934;-34
2022/11/05 08:26:37;;;;;;;;;;;;;;;20.72;45.22;101405.53;5136116;27;20443;-35
2022/11/05 08:29:03;;;;;;;;;;;;;;;20.75;46.24;101404.97;5130910;27;19927;-35
2022/11/05 08:31:30;;;;;;;;;;;;;;;20.77;47.56;101413.03;5132986;27;19980;-35
2022/11/05 08:33:56;;;;;;;;;;;;;;;20.77;47.72;101411.09;5125933;27;19982;-35
2022/11/05 08:36:27;;;;;;;;;;;;;;;20.77;48.17;101408.31;5134883;27;20029;-35
2022/11/05 08:38:53;;;;;;;;;;;;;;;20.78;47.61;101409.97;5125409;27;19978;-34
2022/11/05 08:41:18;;;;;;;;;;;;;;;20.79;47.58;101422.69;5123245;27;19939;-34
2022/11/05 08:43:44;;;;;;;;;;;;;;;20.79;48.16;101410.78;5127199;27;20149;-34
2022/11/05 08:46:10;;;;;;;;;;;;;;;20.77;46.84;101416.63;5123316;27;20036;-34
2022/11/05 08:48:35;;;;;;;;;;;;;;;20.78;47.60;101417.44;5124891;27;19950;-35
2022/11/05 08:51:01;;;;;;;;;;;;;;;20.78;48.07;101409.13;5130463;27;19971;-35
2022/11/05 08:53:26;;;;;;;;;;;;;;;20.77;47.78;101413.84;5124592;27;20284;-35
2022/11/05 08:55:56;;;;;;;;;;;;;;;20.78;47.78;101417.44;5133132;27;20023;-35
2022/11/05 08:58:21;;;;;;;;;;;;;;;20.78;48.49;101415.50;5128404;27;20742;-35
2022/11/05 09:00:47;;;;;;;;;;;;;;;20.78;48.10;101420.22;5126917;27;19939;-34
2022/11/05 09:03:13;;;;;;;;;;;;;;;20.77;48.11;101421.31;5107336;27;20402;-34
2022/11/05 09:05:40;;;;;;;;;;;;;;;20.77;47.53;101419.38;5111032;27;19926;-34
2022/11/05 09:08:06;;;;;;;;;;;;;;;20.77;47.15;101422.16;5131345;27;20022;-34
2022/11/05 09:10:34;;;;;;;;;;;;;;;20.77;46.93;101421.31;5113173;27;19955;-34
2022/11/05 09:12:59;;;;;;;;;;;;;;;20.78;47.60;101428.50;5126351;27;21692;-34
2022/11/05 09:15:25;;;;;;;;;;;;;;;20.78;46.56;101428.50;5126641;27;19927;-34
2022/11/05 09:17:50;;;;;;;;;;;;;;;20.77;47.15;101433.22;5133029;27;19931;-34
2022/11/05 09:20:16;;;;;;;;;;;;;;;20.77;46.73;101435.16;5138138;27;19927;-34
2022/11/05 09:22:41;;;;;;;;;;;;;;;20.77;48.63;101430.47;5133967;27;19927;-34
2022/11/05 09:25:08;;;;;;;;;;;;;;;20.77;48.92;101437.94;5131856;27;19931;-35
2022/11/05 09:27:34;;;;;;;;;;;;;;;20.76;49.20;101433.50;5116443;27;19946;-34
2022/11/05 09:30:00;;;;;;;;;;;;;;;20.77;49.04;101432.41;5126166;27;20327;-34
2022/11/05 09:32:25;;;;;;;;;;;;;;;20.76;49.04;101431.53;5130278;27;20294;-34
2022/11/05 09:34:51;;;;;;;;;;;;;;;20.76;49.12;101426.00;5129082;27;19942;-34
2022/11/05 09:37:16;;;;;;;;;;;;;;;20.76;48.98;101434.31;5133955;27;19930;-33
2022/11/05 09:39:42;;;;;;;;;;;;;;;20.77;48.98;101432.41;5130841;27;19930;-34
2022/11/05 09:42:08;;;;;;;;;;;;;;;20.76;47.98;101434.31;5129522;27;20352;-34
2022/11/05 09:44:39;;;;;;;;;;;;;;;20.77;48.79;101426.88;5130792;27;20181;-34
2022/11/05 09:47:06;;;;;;;;;;;;;;;20.77;48.97;101435.16;5132421;27;20420;-34
2022/11/05 09:49:34;;;;;;;;;;;;;;;20.76;49.02;101426.00;5114579;27;19972;-34
2022/11/05 09:52:00;;;;;;;;;;;;;;;20.77;49.02;101437.94;5135369;27;20620;-34
2022/11/05 09:54:27;;;;;;;;;;;;;;;20.77;49.11;101435.16;5131958;27;19923;-34
2022/11/05 09:56:53;;;;;;;;;;;;;;;20.76;49.19;101434.31;5127876;27;19930;-34
2022/11/05 09:59:23;;;;;;;;;;;;;;;20.76;48.42;101437.06;5134332;27;19928;-34
2022/11/05 10:01:49;;;;;;;;;;;;;;;20.76;49.01;101439.84;5109543;27;20025;-34
2022/11/05 10:04:16;;;;;;;;;;;;;;;20.76;48.39;101430.72;5132598;27;20134;-34
2022/11/05 10:06:46;;;;;;;;;;;;;;;20.76;49.11;101433.50;5115727;27;19973;-34
2022/11/05 10:09:13;;;;;;;;;;;;;;;20.76;49.05;101441.78;5106821;27;22104;-34
2022/11/05 10:11:42;;;;;;;;;;;;;;;20.76;49.15;101444.56;5132553;27;19979;-34
2022/11/05 10:14:27;;;;;;;;;;;;;;;20.76;49.00;101439.84;5133777;27;20409;-34
2022/11/05 10:16:56;;;;;;;;;;;;;;;20.77;47.42;101440.69;5113007;27;19959;-34
2022/11/05 10:19:24;;;;;;;;;;;;;;;20.76;47.73;101439.84;5130645;27;20477;-34
2022/11/05 10:21:59;;;;;;;;;;;;;;;20.76;48.68;101433.50;5131616;27;20487;-34
2022/11/05 10:24:32;;;;;;;;;;;;;;;20.75;48.88;101438.19;5113799;27;19966;-33
2022/11/05 10:26:57;;;;;;;;;;;;;;;20.74;47.86;101444.84;5134426;27;19934;-34
2022/11/05 10:29:25;;;;;;;;;;;;;;;20.74;49.06;101442.06;5131469;27;20299;-34
2022/11/05 10:31:51;;;;;;;;;;;;;;;20.75;49.09;101446.50;5136398;27;20402;-34
2022/11/05 10:34:17;;;;;;;;;;;;;;;20.75;48.14;101446.50;5130239;27;20366;-34
2022/11/05 10:36:43;;;;;;;;;;;;;;;20.75;47.87;101448.44;5128297;27;20006;-34
2022/11/05 10:39:10;;;;;;;;;;;;;;;20.75;49.12;101451.22;5128061;27;19931;-34
2022/11/05 10:41:39;;;;;;;;;;;;;;;20.75;49.01;101452.03;5117538;27;19974;-34
2022/11/05 10:44:17;;;;;;;;;;;;;;;20.75;49.20;101453.97;5131154;27;19971;-34
2022/11/05 10:46:47;;;;;;;;;;;;;;;20.75;48.46;101457.56;5128013;27;20071;-34
2022/11/05 10:49:17;;;;;;;;;;;;;;;20.75;47.80;101454.81;5131619;27;20497;-33
2022/11/05 10:51:43;;;;;;;;;;;;;;;20.75;49.04;101453.97;5141665;27;19974;-33
2022/11/05 10:54:12;;;;;;;;;;;;;;;20.75;47.29;101453.97;5132936;27;20026;-34
2022/11/05 10:56:39;;;;;;;;;;;;;;;20.76;48.50;101452.88;5128014;27;20029;-34
2022/11/05 10:59:05;;;;;;;;;;;;;;;20.75;48.10;101453.97;5119458;27;20385;-34
2022/11/05 11:01:37;;;;;;;;;;;;;;;20.74;47.41;101449.56;5134086;27;19975;-34
2022/11/05 11:04:05;;;;;;;;;;;;;;;20.74;48.99;101450.38;5133827;27;19976;-34
2022/11/05 11:06:31;;;;;;;;;;;;;;;20.74;49.06;101449.56;5129300;27;20060;-34
2022/11/05 11:08:58;;;;;;;;;;;;;;;20.74;48.65;101447.63;5136675;27;20022;-34
2022/11/05 11:11:31;;;;;;;;;;;;;;;20.74;47.67;101452.31;5137131;27;19924;-34
2022/11/05 11:14:00;;;;;;;;;;;;;;;20.74;47.50;101455.91;5116960;27;19932;-34
2022/11/05 11:16:26;;;;;;;;;;;;;;;20.73;47.96;101447.91;5133458;27;19978;-33
2022/11/05 11:18:53;;;;;;;;;;;;;;;20.74;48.90;101453.16;5113146;27;19923;-34
2022/11/05 11:21:19;;;;;;;;;;;;;;;20.74;49.16;101452.31;5130722;27;19966;-34
2022/11/05 11:23:52;;;;;;;;;;;;;;;20.74;49.08;101450.38;5117801;27;20326;-34
2022/11/05 11:26:20;;;;;;;;;;;;;;;20.73;48.91;101448.72;5111759;27;20456;-34
2022/11/05 11:28:54;;;;;;;;;;;;;;;20.73;49.12;101447.91;5127674;27;19958;-34
2022/11/05 11:31:20;;;;;;;;;;;;;;;20.73;47.71;101450.66;5114864;27;20014;-34
2022/11/05 11:33:46;;;;;;;;;;;;;;;20.73;49.11;101457.03;5118139;27;20064;-34
2022/11/05 11:36:12;;;;;;;;;;;;;;;20.74;49.05;101449.56;5116168;27;19958;-34
2022/11/05 11:38:38;;;;;;;;;;;;;;;20.73;49.01;101453.44;5120624;27;19923;-34
2022/11/05 11:41:07;;;;;;;;;;;;;;;20.73;48.42;101459.81;5136528;27;20171;-33
2022/11/05 11:43:33;;;;;;;;;;;;;;;20.73;49.07;101454.28;5117494;27;20389;-34
2022/11/05 11:45:59;;;;;;;;;;;;;;;20.74;48.33;101457.84;5136155;27;19971;-34
2022/11/05 11:48:33;;;;;;;;;;;;;;;20.73;48.83;101456.22;5131835;27;19923;-34
2022/11/05 11:50:58;;;;;;;;;;;;;;;20.72;47.99;101458.13;5136893;27;20398;-34
2022/11/05 11:53:27;;;;;;;;;;;;;;;20.73;47.77;101456.22;5137087;27;19923;-34
2022/11/05 11:55:56;;;;;;;;;;;;;;;20.73;48.07;101456.22;5113484;27;19955;-34
2022/11/05 11:58:22;;;;;;;;;;;;;;;20.73;48.14;101459.81;5141316;27;19958;-34
2022/11/05 12:00:49;;;;;;;;;;;;;;;20.73;48.95;101457.03;5136884;27;19966;-34
2022/11/05 12:03:18;;;;;;;;;;;;;;;20.73;48.84;101453.44;5131087;27;20374;-34
2022/11/05 12:05:46;;;;;;;;;;;;;;;20.73;49.03;101450.66;5131609;27;20053;-33
2022/11/05 12:08:19;;;;;;;;;;;;;;;20.73;49.05;101451.50;5136894;27;20050;-34
2022/11/05 12:10:48;;;;;;;;;;;;;;;20.74;48.15;101450.38;5136253;27;20753;-36
2022/11/05 12:15:56;;;;;;;;;;;;;;;20.74;49.16;101447.63;5169743;27;19945;-34
2022/11/05 12:18:41;;;;;;;;;;;;;;;20.73;49.12;101448.72;5160396;27;20063;-33
2022/11/05 12:21:16;;;;;;;;;;;;;;;20.73;49.12;101442.38;5144152;27;20156;-34
2022/11/05 12:24:21;;;;;;;;;;;;;;;20.72;49.03;101447.03;5142619;27;19930;-34
2022/11/05 12:27:08;;;;;;;;;;;;;;;20.73;49.08;101439.59;5145791;27;20385;-34
2022/11/05 12:29:37;;;;;;;;;;;;;;;20.72;49.21;101441.50;5148751;27;19967;-33
2022/11/05 12:32:16;;;;;;;;;;;;;;;20.72;49.13;101446.22;5159740;27;19954;-34
2022/11/05 12:35:01;;;;;;;;;;;;;;;20.72;49.14;101444.28;5159535;27;19923;-34
2022/11/05 12:37:30;;;;;;;;;;;;;;;20.72;49.20;101433.22;5139226;27;20378;-35
2022/11/05 12:39:59;;;;;;;;;;;;;;;20.72;49.16;101433.22;5159089;27;20497;-34
2022/11/05 12:42:35;;;;;;;;;;;;;;;20.73;49.18;101425.75;5156466;27;19962;-34
2022/11/05 12:45:20;;;;;;;;;;;;;;;20.72;49.14;101435.16;5153683;27;20025;-34
2022/11/05 12:47:48;;;;;;;;;;;;;;;20.72;49.25;101426.84;5158238;27;20270;-34
2022/11/05 12:50:20;;;;;;;;;;;;;;;20.72;48.50;101421.31;5164682;27;19958;-34
2022/11/05 12:53:05;;;;;;;;;;;;;;;20.72;49.09;101424.09;5160028;27;19963;-34
2022/11/05 12:55:35;;;;;;;;;;;;;;;20.71;49.01;101426.03;5121982;27;20030;-34
2022/11/05 12:58:04;;;;;;;;;;;;;;;20.71;49.07;101414.94;5133704;27;19973;-34
2022/11/05 13:00:30;;;;;;;;;;;;;;;20.72;49.07;101413.00;5115998;27;19955;-34
2022/11/05 13:02:59;;;;;;;;;;;;;;;20.71;49.27;101409.41;5138356;27;19946;-34
2022/11/05 13:05:44;;;;;;;;;;;;;;;20.71;49.09;101406.66;5132995;27;20022;-34
2022/11/05 13:08:14;;;;;;;;;;;;;;;20.72;49.12;101413.84;5123791;27;20436;-34
2022/11/05 13:10:43;;;;;;;;;;;;;;;20.71;48.40;101417.72;5134812;27;20019;-34
2022/11/05 13:13:14;;;;;;;;;;;;;;;20.72;48.15;101413.84;5141104;27;19986;-34
2022/11/05 13:15:56;;;;;;;;;;;;;;;20.71;49.10;101420.47;5132711;27;19948;-34
2022/11/05 13:18:24;;;;;;;;;;;;;;;20.72;48.56;101424.09;5138974;27;20407;-34
2022/11/05 13:20:51;;;;;;;;;;;;;;;20.72;49.06;101421.31;5144817;27;19924;-34
2022/11/05 13:23:19;;;;;;;;;;;;;;;20.71;49.04;101420.47;5124087;27;19973;-34
2022/11/05 13:25:47;;;;;;;;;;;;;;;20.71;49.11;101420.47;5133047;27;20274;-34
2022/11/05 13:28:18;;;;;;;;;;;;;;;20.71;48.75;101414.94;5122832;28;20019;-34
2022/11/05 13:30:45;;;;;;;;;;;;;;;20.71;49.19;101401.13;5127437;28;20290;-34